createdAt,value
2022-11-25T00:00:33.731Z,71.04
2022-11-25T00:03:22.673Z,71.29
2022-11-25T00:06:22.011Z,72.67
2022-11-25T00:09:16.618Z,72.40
2022-11-25T00:12:05.732Z,71.96
2022-11-25T00:14:48.055Z,72.48
2022-11-25T00:17:36.705Z,73.39
2022-11-25T00:20:21.480Z,72.93
2022-11-25T00:23:10.654Z,72.08
2022-11-25T00:25:59.734Z,72.88
2022-11-25T00:28:50.980Z,73.08
2022-11-25T00:31:41.769Z,72.65
2022-11-25T00:34:23.936Z,72.35
2022-11-25T00:37:12.622Z,72.85
2022-11-25T00:40:01.603Z,71.86
2022-11-25T00:43:01.930Z,72.91
2022-11-25T00:45:52.667Z,72.45
2022-11-25T00:48:34.887Z,73.48
2022-11-25T00:51:23.622Z,72.61
2022-11-25T00:54:12.591Z,73.02
2022-11-25T00:57:01.774Z,72.10
2022-11-25T00:59:44.078Z,72.19
2022-11-25T01:02:35.666Z,72.41
2022-11-25T01:05:20.853Z,73.15
2022-11-25T01:08:09.699Z,73.06
2022-11-25T01:11:02.675Z,72.05
2022-11-25T01:13:54.432Z,72.30
2022-11-25T01:16:46.147Z,72.43
2022-11-25T01:19:28.677Z,73.12
2022-11-25T01:22:17.930Z,73.44
2022-11-25T01:25:01.039Z,73.72
2022-11-25T01:27:50.736Z,73.09
2022-11-25T01:30:41.586Z,73.67
2022-11-25T01:33:23.905Z,73.65
2022-11-25T01:36:25.750Z,74.29
2022-11-25T01:39:08.036Z,74.51
2022-11-25T01:41:56.719Z,74.30
2022-11-25T01:44:40.618Z,74.34
2022-11-25T01:47:25.551Z,74.22
2022-11-25T01:50:25.995Z,73.69
2022-11-25T01:53:17.959Z,73.63
2022-11-25T01:56:06.734Z,72.13
2022-11-25T01:58:56.959Z,72.02
2022-11-25T02:01:39.791Z,72.28
2022-11-25T02:04:23.696Z,72.02
2022-11-25T02:07:19.666Z,71.80
2022-11-25T02:10:04.015Z,72.04
2022-11-25T02:12:56.700Z,75.30
2022-11-25T02:15:39.101Z,72.79
2022-11-25T02:18:27.677Z,73.30
2022-11-25T02:21:10.391Z,73.62
2022-11-25T02:24:26.614Z,72.40
2022-11-25T02:27:16.972Z,72.29
2022-11-25T02:30:05.763Z,73.05
2022-11-25T02:32:52.960Z,72.31
2022-11-25T02:35:43.666Z,73.00
2022-11-25T02:38:34.017Z,72.65
2022-11-25T02:41:29.567Z,72.86
2022-11-25T02:44:20.583Z,71.63
2022-11-25T02:47:08.961Z,71.83
2022-11-25T02:49:51.705Z,72.39
2022-11-25T02:52:34.138Z,69.95
2022-11-25T02:55:24.716Z,72.27
2022-11-25T02:58:13.021Z,72.13
2022-11-25T03:00:55.801Z,72.43
2022-11-25T03:03:44.996Z,70.85
2022-11-25T03:06:27.728Z,70.05
2022-11-25T03:09:15.949Z,70.56
2022-11-25T03:12:16.612Z,71.20
2022-11-25T03:15:08.015Z,65.55
2022-11-25T03:17:50.739Z,67.12
2022-11-25T03:20:40.028Z,68.33
2022-11-25T03:23:21.712Z,68.40
2022-11-25T03:26:14.989Z,65.50
2022-11-25T03:28:57.670Z,61.79
2022-11-25T03:31:54.780Z,62.10
2022-11-25T03:34:43.643Z,61.75
2022-11-25T03:37:33.597Z,64.96
2022-11-25T03:40:25.126Z,62.15
2022-11-25T03:43:07.692Z,58.49
2022-11-25T03:45:52.947Z,60.62
2022-11-25T03:48:42.629Z,58.08
2022-11-25T03:51:30.964Z,57.62
2022-11-25T03:54:13.792Z,54.60
2022-11-25T03:57:21.903Z,51.70
2022-11-25T04:00:10.624Z,51.67
2022-11-25T04:03:03.957Z,53.46
2022-11-25T04:05:52.655Z,52.02
2022-11-25T04:08:42.047Z,51.58
2022-11-25T04:11:24.711Z,47.66
2022-11-25T04:14:13.957Z,46.61
2022-11-25T04:16:56.782Z,50.64
2022-11-25T04:19:46.127Z,49.38
2022-11-25T04:22:27.795Z,51.68
2022-11-25T04:25:19.996Z,50.01
2022-11-25T04:28:03.569Z,50.45
2022-11-25T04:30:53.012Z,52.02
2022-11-25T04:33:36.595Z,50.67
2022-11-25T04:36:25.962Z,49.13
2022-11-25T04:39:08.650Z,51.11
2022-11-25T04:41:57.638Z,50.16
2022-11-25T04:44:39.996Z,52.85
2022-11-25T04:47:28.668Z,48.34
2022-11-25T04:50:13.919Z,51.02
2022-11-25T04:53:20.642Z,50.69
2022-11-25T04:56:04.152Z,46.91
2022-11-25T04:59:16.658Z,47.27
2022-11-25T05:01:58.974Z,47.28
2022-11-25T05:04:54.548Z,51.36
2022-11-25T05:07:38.361Z,50.64
2022-11-25T05:10:29.719Z,50.63
2022-11-25T05:13:12.012Z,47.99
2022-11-25T05:16:00.582Z,47.56
2022-11-25T05:18:43.944Z,49.47
2022-11-25T05:21:32.650Z,45.01
2022-11-25T05:24:15.118Z,47.82
2022-11-25T05:27:06.703Z,43.22
2022-11-25T05:29:55.543Z,47.30
2022-11-25T05:32:44.577Z,46.42
2022-11-25T05:35:29.096Z,46.89
2022-11-25T05:38:17.611Z,48.35
2022-11-25T05:41:01.983Z,46.29
2022-11-25T05:43:50.699Z,48.01
2022-11-25T05:46:39.660Z,45.67
2022-11-25T05:49:29.039Z,44.77
2022-11-25T05:52:11.643Z,45.78
2022-11-25T05:55:01.013Z,41.14
2022-11-25T05:57:49.701Z,43.12
2022-11-25T06:00:38.949Z,45.13
2022-11-25T06:03:21.648Z,40.21
2022-11-25T06:06:10.609Z,40.71
2022-11-25T06:09:00.610Z,43.63
2022-11-25T06:11:45.046Z,39.51
2022-11-25T06:14:33.771Z,41.34
2022-11-25T06:17:22.679Z,42.43
2022-11-25T06:20:16.967Z,41.79
2022-11-25T06:23:07.564Z,43.49
2022-11-25T06:25:56.703Z,44.26
2022-11-25T06:28:44.987Z,44.26
2022-11-25T06:31:41.861Z,41.06
2022-11-25T06:34:58.850Z,39.27
2022-11-25T06:37:59.626Z,43.88
2022-11-25T06:40:48.681Z,38.84
2022-11-25T06:43:30.979Z,40.75
2022-11-25T06:46:25.546Z,41.11
2022-11-25T06:49:08.935Z,42.53
2022-11-25T06:52:00.746Z,37.66
2022-11-25T06:54:43.061Z,40.73
2022-11-25T06:57:31.688Z,40.68
2022-11-25T07:00:15.012Z,39.21
2022-11-25T07:03:03.640Z,40.31
2022-11-25T07:05:45.972Z,40.83
2022-11-25T07:08:35.608Z,38.70
2022-11-25T07:11:32.936Z,39.57
2022-11-25T07:14:23.696Z,40.18
2022-11-25T07:17:11.597Z,39.51
2022-11-25T07:20:00.744Z,38.17
2022-11-25T07:22:42.942Z,39.95
2022-11-25T07:25:31.643Z,39.95
2022-11-25T07:28:13.981Z,38.58
2022-11-25T07:34:12.244Z,38.16
2022-11-25T07:37:00.639Z,39.33
2022-11-25T07:39:42.943Z,38.21
2022-11-25T07:42:31.736Z,39.93
2022-11-25T07:45:17.994Z,38.69
2022-11-25T07:48:19.628Z,38.17
2022-11-25T07:51:02.015Z,38.58
2022-11-25T07:53:50.685Z,38.97
2022-11-25T07:56:33.168Z,38.94
2022-11-25T07:59:24.672Z,37.90
2022-11-25T08:02:07.046Z,38.43
2022-11-25T08:04:55.708Z,39.08
2022-11-25T08:07:37.965Z,37.70
2022-11-25T08:10:27.625Z,38.66
2022-11-25T08:13:16.695Z,38.26
2022-11-25T08:16:02.010Z,36.88
2022-11-25T08:18:50.784Z,37.62
2022-11-25T08:21:38.967Z,37.86
2022-11-25T08:24:26.886Z,37.01
2022-11-25T08:27:08.818Z,38.00
2022-11-25T08:29:57.676Z,37.85
2022-11-25T08:32:53.549Z,39.21
2022-11-25T08:35:45.598Z,39.96
2022-11-25T08:38:27.927Z,39.52
2022-11-25T08:41:44.629Z,36.98
2022-11-25T08:44:29.343Z,38.94
2022-11-25T08:47:18.660Z,38.37
2022-11-25T08:50:02.575Z,35.96
2022-11-25T08:52:51.648Z,37.00
2022-11-25T08:55:40.519Z,37.28
2022-11-25T08:58:29.540Z,35.73
2022-11-25T09:01:12.887Z,34.34
2022-11-25T09:04:04.610Z,35.37
2022-11-25T09:06:52.931Z,35.44
2022-11-25T09:09:35.797Z,35.19
2022-11-25T09:12:18.094Z,34.89
2022-11-25T09:15:06.689Z,34.47
2022-11-25T09:17:55.927Z,35.54
2022-11-25T09:20:39.679Z,35.70
2022-11-25T09:23:26.063Z,35.19
2022-11-25T09:26:18.562Z,35.05
2022-11-25T09:29:14.560Z,35.41
2022-11-25T09:32:02.919Z,36.23
2022-11-25T09:34:45.672Z,37.47
2022-11-25T09:37:35.271Z,37.15
2022-11-25T09:40:35.671Z,37.90
2022-11-25T09:43:47.216Z,37.10
2022-11-25T09:47:10.722Z,37.51
2022-11-25T09:50:34.160Z,40.44
2022-11-25T09:53:33.661Z,40.41
2022-11-25T09:56:32.935Z,40.11
2022-11-25T09:59:39.735Z,39.48
2022-11-25T10:02:35.125Z,39.99
2022-11-25T10:05:57.542Z,40.45
2022-11-25T10:08:53.977Z,39.82
2022-11-25T10:11:57.580Z,40.02
2022-11-25T10:15:04.031Z,41.05
2022-11-25T10:18:11.530Z,40.89
2022-11-25T10:20:54.499Z,41.02
2022-11-25T10:23:48.597Z,41.02
2022-11-25T10:26:38.549Z,40.94
2022-11-25T10:29:43.651Z,41.97
2022-11-25T10:32:42.511Z,41.22
2022-11-25T10:35:54.669Z,41.29
2022-11-25T10:39:00.675Z,44.53
2022-11-25T10:41:58.794Z,44.92
2022-11-25T10:44:48.925Z,42.82
2022-11-25T10:47:55.703Z,43.40
2022-11-25T10:50:59.784Z,43.28
2022-11-25T10:53:47.883Z,44.38
2022-11-25T10:56:29.604Z,48.10
2022-11-25T10:59:33.992Z,46.99
2022-11-25T11:02:15.733Z,48.34
2022-11-25T11:05:09.680Z,46.99
2022-11-25T11:07:52.992Z,47.10
2022-11-25T11:10:41.650Z,47.34
2022-11-25T11:13:34.347Z,48.37
2022-11-25T11:16:44.689Z,48.58
2022-11-25T11:19:36.908Z,51.13
2022-11-25T11:22:34.045Z,50.35
2022-11-25T11:25:28.701Z,51.86
2022-11-25T11:28:45.636Z,51.13
2022-11-25T11:32:08.530Z,51.33
2022-11-25T11:35:03.632Z,54.50
2022-11-25T11:37:57.743Z,54.91
2022-11-25T11:40:54.495Z,53.71
2022-11-25T11:44:04.613Z,54.13
2022-11-25T11:47:05.987Z,54.54
2022-11-25T11:50:10.572Z,57.36
2022-11-25T11:53:03.601Z,56.04
2022-11-25T11:56:33.531Z,57.82
2022-11-25T11:59:24.665Z,57.63
2022-11-25T12:02:13.598Z,57.17
2022-11-25T12:05:18.179Z,58.26
2022-11-25T12:08:17.550Z,58.42
2022-11-25T12:11:29.603Z,57.96
2022-11-25T12:14:35.014Z,58.47
2022-11-25T12:17:41.992Z,57.80
2022-11-25T12:21:03.664Z,58.63
2022-11-25T12:23:48.928Z,59.28
2022-11-25T12:26:44.578Z,60.10
2022-11-25T12:29:58.903Z,59.92
2022-11-25T12:32:51.163Z,59.02
2022-11-25T12:35:59.941Z,59.26
2022-11-25T12:38:55.613Z,59.40
2022-11-25T12:42:02.888Z,59.77
2022-11-25T12:45:15.549Z,59.91
2022-11-25T12:47:58.896Z,60.44
2022-11-25T12:51:07.636Z,59.57
2022-11-25T12:54:20.520Z,59.41
2022-11-25T12:57:37.623Z,60.33
2022-11-25T13:00:42.473Z,60.61
2022-11-25T13:03:42.946Z,60.75
2022-11-25T13:06:27.518Z,60.92
2022-11-25T13:09:22.468Z,60.63
2022-11-25T13:12:18.827Z,61.30
2022-11-25T13:15:04.249Z,61.79
2022-11-25T13:17:57.707Z,61.32
2022-11-25T13:20:54.502Z,62.17
2022-11-25T13:23:37.927Z,63.04
2022-11-25T13:26:56.597Z,62.81
2022-11-25T13:29:38.880Z,62.90
2022-11-25T13:32:48.504Z,63.09
2022-11-25T13:35:32.005Z,63.25
2022-11-25T13:39:15.656Z,63.15
2022-11-25T13:42:21.133Z,62.98
2022-11-25T13:45:09.756Z,63.70
2022-11-25T13:47:57.071Z,63.89
2022-11-25T13:51:10.218Z,63.52
2022-11-25T13:53:48.866Z,64.18
2022-11-25T13:56:39.665Z,64.55
2022-11-25T13:59:22.098Z,64.05
2022-11-25T14:02:36.845Z,64.72
2022-11-25T14:05:30.889Z,64.89
2022-11-25T14:08:19.651Z,65.38
2022-11-25T14:11:17.895Z,65.77
2022-11-25T14:14:12.660Z,65.74
2022-11-25T14:17:13.645Z,65.30
2022-11-25T14:20:35.618Z,65.78
2022-11-25T14:24:06.913Z,65.89
2022-11-25T14:27:00.659Z,65.88
2022-11-25T14:29:55.628Z,66.53
2022-11-25T14:33:14.671Z,66.89
2022-11-25T14:36:10.095Z,67.07
2022-11-25T14:38:58.605Z,67.39
2022-11-25T14:41:51.393Z,66.76
2022-11-25T14:44:47.600Z,67.12
2022-11-25T14:47:38.608Z,67.04
2022-11-25T14:50:35.843Z,67.13
2022-11-25T14:53:17.809Z,67.42
2022-11-25T14:56:08.603Z,67.07
2022-11-25T14:58:53.759Z,66.59
2022-11-25T15:01:45.649Z,67.87
2022-11-25T15:04:34.652Z,67.56
2022-11-25T15:07:37.638Z,67.96
2022-11-25T15:10:38.618Z,67.96
2022-11-25T15:13:33.142Z,67.75
2022-11-25T15:16:21.740Z,67.70
2022-11-25T15:19:13.589Z,67.68
2022-11-25T15:22:24.287Z,67.69
2022-11-25T15:25:16.865Z,68.01
2022-11-25T15:28:06.625Z,68.34
2022-11-25T15:30:48.937Z,68.26
2022-11-25T15:33:38.507Z,68.24
2022-11-25T15:36:20.924Z,68.61
2022-11-25T15:39:29.481Z,68.61
2022-11-25T15:42:35.076Z,68.94
2022-11-25T15:45:29.542Z,69.09
2022-11-25T15:48:12.947Z,68.95
2022-11-25T15:51:09.540Z,69.39
2022-11-25T15:53:53.030Z,69.42
2022-11-25T15:56:46.602Z,69.07
2022-11-25T15:59:57.612Z,69.35
2022-11-25T16:02:47.964Z,69.08
2022-11-25T16:05:51.587Z,69.24
2022-11-25T16:08:41.986Z,69.08
2022-11-25T16:11:27.590Z,69.59
2022-11-25T16:14:38.113Z,69.61
2022-11-25T16:17:22.602Z,69.81
2022-11-25T16:20:11.901Z,69.43
2022-11-25T16:22:54.603Z,69.43
2022-11-25T16:25:43.992Z,69.89
2022-11-25T16:28:30.634Z,70.03
2022-11-25T16:31:31.621Z,69.96
2022-11-25T16:34:16.970Z,70.48
2022-11-25T16:37:05.585Z,70.33
2022-11-25T16:39:55.023Z,70.45
2022-11-25T16:42:36.587Z,70.82
2022-11-25T16:45:29.679Z,70.62
2022-11-25T16:48:32.580Z,70.27
2022-11-25T16:55:10.480Z,70.79
2022-11-25T16:57:55.453Z,70.98
2022-11-25T17:00:44.649Z,71.28
2022-11-25T17:03:34.606Z,71.12
2022-11-25T17:06:29.164Z,70.99
2022-11-25T17:09:11.522Z,71.40
2022-11-25T17:12:02.677Z,71.63
2022-11-25T17:14:45.146Z,71.65
2022-11-25T17:17:35.589Z,71.72
2022-11-25T17:20:36.633Z,71.41
2022-11-25T17:23:27.638Z,71.66
2022-11-25T17:26:10.516Z,71.50
2022-11-25T17:29:07.518Z,71.15
2022-11-25T17:31:55.104Z,71.46
2022-11-25T17:34:47.480Z,71.13
2022-11-25T17:37:33.755Z,70.89
2022-11-25T17:40:23.612Z,71.44
2022-11-25T17:43:06.753Z,71.49
2022-11-25T17:45:55.584Z,72.15
2022-11-25T17:48:45.513Z,72.12
2022-11-25T17:51:34.614Z,72.07
2022-11-25T17:54:17.016Z,72.07
2022-11-25T17:57:06.550Z,71.89
2022-11-25T17:59:49.045Z,72.05
2022-11-25T18:02:37.752Z,72.07
2022-11-25T18:05:28.026Z,71.95
2022-11-25T18:08:16.670Z,71.88
2022-11-25T18:10:59.062Z,71.75
2022-11-25T18:13:49.681Z,71.98
2022-11-25T18:16:32.310Z,72.20
2022-11-25T18:19:21.668Z,72.40
2022-11-25T18:22:14.051Z,72.74
2022-11-25T18:25:07.968Z,72.01
2022-11-25T18:27:55.299Z,72.59
2022-11-25T18:30:46.670Z,72.66
2022-11-25T18:33:28.961Z,72.77
2022-11-25T18:36:21.526Z,72.25
2022-11-25T18:39:03.859Z,72.62
2022-11-25T18:41:53.631Z,72.78
2022-11-25T18:44:44.346Z,72.94
2022-11-25T18:47:33.580Z,72.72
2022-11-25T18:50:28.036Z,73.08
2022-11-25T18:53:16.606Z,72.73
2022-11-25T18:55:58.943Z,72.26
2022-11-25T18:58:47.511Z,72.83
2022-11-25T19:01:31.124Z,72.65
2022-11-25T19:04:25.537Z,72.07
2022-11-25T19:07:07.971Z,71.40
2022-11-25T19:09:56.520Z,72.11
2022-11-25T19:12:38.951Z,72.24
2022-11-25T19:15:31.625Z,72.67
2022-11-25T19:18:15.062Z,72.25
2022-11-25T19:21:03.604Z,73.14
2022-11-25T19:23:46.034Z,72.70
2022-11-25T19:26:41.533Z,71.97
2022-11-25T19:29:45.908Z,72.58
2022-11-25T19:32:37.467Z,72.41
2022-11-25T19:35:28.067Z,71.52
2022-11-25T19:38:25.474Z,72.42
2022-11-25T19:41:07.913Z,72.15
2022-11-25T19:43:56.561Z,72.38
2022-11-25T19:47:13.668Z,72.58
2022-11-25T19:50:32.614Z,72.28
2022-11-25T19:53:35.391Z,72.37
2022-11-25T19:56:26.591Z,71.50
2022-11-25T19:59:09.452Z,71.93
2022-11-25T20:01:58.644Z,71.82
2022-11-25T20:04:42.049Z,72.08
2022-11-25T20:07:30.711Z,72.56
2022-11-25T20:10:28.919Z,72.41
2022-11-25T20:13:18.599Z,72.77
2022-11-25T20:16:02.929Z,72.41
2022-11-25T20:18:51.533Z,72.07
2022-11-25T20:21:37.022Z,73.17
2022-11-25T20:24:27.483Z,72.76
2022-11-25T20:27:16.721Z,72.65
2022-11-25T20:30:05.820Z,72.34
2022-11-25T20:32:48.619Z,71.79
2022-11-25T20:35:36.868Z,72.24
2022-11-25T20:38:39.592Z,70.38
2022-11-25T20:41:30.558Z,70.00
2022-11-25T20:44:12.816Z,70.32
2022-11-25T20:47:01.477Z,71.02
2022-11-25T20:49:43.847Z,70.73
2022-11-25T20:52:42.518Z,71.20
2022-11-25T20:55:32.977Z,71.54
2022-11-25T20:58:37.573Z,73.29
2022-11-25T21:01:26.943Z,73.53
2022-11-25T21:04:09.571Z,73.09
2022-11-25T21:06:57.861Z,73.71
2022-11-25T21:09:42.545Z,73.18
2022-11-25T21:12:24.817Z,73.00
2022-11-25T21:15:13.457Z,73.41
2022-11-25T21:18:02.584Z,73.41
2022-11-25T21:20:52.589Z,73.23
2022-11-25T21:23:45.917Z,73.25
2022-11-25T21:26:30.632Z,73.64
2022-11-25T21:29:23.453Z,73.35
2022-11-25T21:32:05.914Z,73.14
2022-11-25T21:34:54.578Z,73.44
2022-11-25T21:37:42.858Z,73.64
2022-11-25T21:40:49.620Z,73.74
2022-11-25T21:43:37.872Z,72.88
2022-11-25T21:46:28.652Z,73.89
2022-11-25T21:49:16.801Z,73.19
2022-11-25T21:52:05.539Z,73.21
2022-11-25T21:55:01.516Z,74.19
2022-11-25T21:57:51.573Z,73.78
2022-11-25T22:00:33.862Z,73.14
2022-11-25T22:03:26.573Z,73.49
2022-11-25T22:06:08.844Z,73.34
2022-11-25T22:08:58.933Z,73.01
2022-11-25T22:11:43.907Z,73.60
2022-11-25T22:14:44.570Z,74.37
2022-11-25T22:17:27.809Z,75.04
2022-11-25T22:20:34.486Z,73.60
2022-11-25T22:23:25.846Z,74.10
2022-11-25T22:26:15.525Z,73.53
2022-11-25T22:29:01.086Z,73.78
2022-11-25T22:31:50.589Z,73.77
2022-11-25T22:34:32.923Z,73.45
2022-11-25T22:37:29.452Z,73.18
2022-11-25T22:40:12.196Z,73.91
2022-11-25T22:43:03.529Z,74.55
2022-11-25T22:45:47.004Z,73.67
2022-11-25T22:48:44.496Z,74.38
2022-11-25T22:51:35.289Z,74.27
2022-11-25T22:54:24.423Z,73.79
2022-11-25T22:57:06.857Z,74.11
2022-11-25T22:59:55.570Z,74.11
2022-11-25T23:02:41.810Z,74.18
2022-11-25T23:05:44.524Z,74.24
2022-11-25T23:08:39.432Z,74.00
2022-11-25T23:11:29.435Z,74.66
2022-11-25T23:14:11.899Z,74.18
2022-11-25T23:17:00.566Z,74.11
2022-11-25T23:19:49.439Z,73.57
2022-11-25T23:22:39.653Z,74.46
2022-11-25T23:25:31.372Z,74.04
2022-11-25T23:28:20.562Z,73.69
2022-11-25T23:31:15.524Z,74.06
2022-11-25T23:34:04.495Z,74.63
2022-11-25T23:37:01.483Z,74.66
2022-11-25T23:39:50.426Z,74.44
2022-11-25T23:42:32.801Z,74.28
2022-11-25T23:45:27.647Z,74.02
2022-11-25T23:48:11.818Z,74.95
2022-11-25T23:51:03.548Z,74.48
2022-11-25T23:53:55.466Z,74.51
2022-11-25T23:56:45.490Z,75.30
2022-11-25T23:59:30.930Z,75.03
